Time;durP1;ratioP1;P1;durP2;ratioP2;P2;SDS_P1;SDS_P2;PMS_P1;PMS_P2;Temp;Humidity;BMP_temperature;BMP_pressure;BME280_temperature;BME280_humidity;BME280_pressure;Samples;Min_cycle;Max_cycle;Signal;HPM_P1;HPM_P2
2022/01/07 00:00:20;;;;;;;22.05;9.95;;;153.70;1689.60;;;;;;5053860;28;20493;-60
2022/01/07 00:02:50;;;;;;;;;;;153.70;1689.60;;;;;;5054605;28;20025;-60
2022/01/07 00:05:17;;;;;;;23.10;10.05;;;153.70;1664.00;;;;;;5053662;28;19923;-59
2022/01/07 00:07:43;;;;;;;16.20;9.02;;;153.60;1689.60;;;;;;5054108;28;20124;-58
2022/01/07 00:10:12;;;;;;;17.92;9.05;;;153.60;1689.60;;;;;;5053288;28;20037;-59
2022/01/07 00:12:38;;;;;;;19.33;10.18;;;153.60;1689.60;;;;;;5053790;28;20071;-60
2022/01/07 00:15:05;;;;;;;14.85;8.18;;;153.60;1689.60;;;;;;5052607;28;20055;-60
2022/01/07 00:17:31;;;;;;;11.77;7.68;;;128.80;1689.60;;;;;;5053034;28;20029;-59
2022/01/07 00:19:57;;;;;;;13.07;7.07;;;128.80;1689.60;;;;;;5053909;28;20082;-59
2022/01/07 00:22:23;;;;;;;13.50;6.68;;;128.80;1664.00;;;;;;5053069;28;20471;-59
2022/01/07 00:24:49;;;;;;;14.60;6.90;;;128.90;1664.00;;;;;;5053630;28;20055;-59
2022/01/07 00:27:15;;;;;;;13.98;7.63;;;128.80;1664.00;;;;;;5053012;28;20025;-59
2022/01/07 00:29:41;;;;;;;12.52;7.03;;;128.80;1664.00;;;;;;5053125;28;20492;-60
2022/01/07 00:32:07;;;;;;;10.43;5.93;;;128.90;1664.00;;;;;;5053230;28;20108;-59
2022/01/07 00:34:33;;;;;;;12.45;6.35;;;128.80;1638.40;;;;;;5053190;28;20029;-59
2022/01/07 00:36:59;;;;;;;11.15;5.93;;;128.70;1638.40;;;;;;5052765;28;20422;-59
2022/01/07 00:39:24;;;;;;;9.65;5.07;;;128.70;1664.00;;;;;;5053675;28;20036;-59
2022/01/07 00:41:50;;;;;;;10.15;5.57;;;128.80;1638.40;;;;;;5052444;28;20029;-59
2022/01/07 00:44:16;;;;;;;12.82;6.72;;;128.80;1638.40;;;;;;5053171;28;20037;-60
2022/01/07 00:46:42;;;;;;;12.50;6.70;;;128.70;1612.80;;;;;;5052962;28;20039;-59
2022/01/07 00:49:07;;;;;;;9.40;5.38;;;128.50;1638.40;;;;;;5055332;28;20450;-59
2022/01/07 00:51:33;;;;;;;10.65;5.50;;;128.50;1638.40;;;;;;5055022;28;20102;-60
2022/01/07 00:53:59;;;;;;;9.00;5.00;;;128.40;1638.40;;;;;;5056374;28;20032;-60
2022/01/07 00:56:24;;;;;;;8.40;4.63;;;128.50;1638.40;;;;;;5054959;28;20035;-61
2022/01/07 00:58:50;;;;;;;10.95;5.13;;;128.40;1638.40;;;;;;5055426;28;20033;-60
2022/01/07 01:01:17;;;;;;;9.60;4.60;;;128.50;1638.40;;;;;;5057315;28;20470;-60
2022/01/07 01:03:43;;;;;;;10.07;4.28;;;128.50;1638.40;;;;;;5056892;28;20044;-61
2022/01/07 01:06:09;;;;;;;7.68;4.10;;;128.40;1638.40;;;;;;5055790;28;20143;-60
2022/01/07 01:08:34;;;;;;;8.10;4.28;;;128.30;1664.00;;;;;;5053769;28;20041;-60
2022/01/07 01:11:00;;;;;;;10.43;4.55;;;128.30;1638.40;;;;;;5055744;28;20052;-61
2022/01/07 01:13:26;;;;;;;7.03;3.75;;;128.30;1638.40;;;;;;5055676;28;20544;-60
2022/01/07 01:15:52;;;;;;;9.40;4.53;;;128.30;1638.40;;;;;;5057171;28;20029;-59
2022/01/07 01:18:18;;;;;;;7.32;3.85;;;128.20;1638.40;;;;;;5056135;28;20032;-62
2022/01/07 01:20:44;;;;;;;9.38;4.70;;;128.30;1638.40;;;;;;5057036;28;20025;-60
2022/01/07 01:23:10;;;;;;;8.20;4.15;;;128.20;1612.80;;;;;;5056208;28;20053;-59
2022/01/07 01:25:36;;;;;;;8.52;4.25;;;128.30;1612.80;;;;;;5054857;28;20040;-59
2022/01/07 01:28:02;;;;;;;10.63;4.57;;;128.20;1612.80;;;;;;5056378;28;20025;-60
2022/01/07 01:30:28;;;;;;;10.23;4.82;;;128.10;1638.40;;;;;;5056003;28;20031;-60
2022/01/07 01:32:54;;;;;;;8.68;5.22;;;128.20;1638.40;;;;;;5056567;28;20029;-59
2022/01/07 01:35:21;;;;;;;11.05;5.03;;;128.10;1612.80;;;;;;5056802;28;20029;-59
2022/01/07 01:37:49;;;;;;;11.05;5.30;;;128.10;1638.40;;;;;;5056146;28;20044;-60
2022/01/07 01:40:16;;;;;;;10.35;5.10;;;128.10;1612.80;;;;;;5055645;28;20086;-60
2022/01/07 01:42:42;;;;;;;12.73;5.10;;;128.00;1612.80;;;;;;5055055;28;20021;-59
2022/01/07 01:45:10;;;;;;;10.77;5.70;;;128.10;1638.40;;;;;;5054967;28;20033;-60
2022/01/07 01:47:36;;;;;;;11.63;5.90;;;128.00;1612.80;;;;;;5055435;28;20459;-60
2022/01/07 01:50:02;;;;;;;13.05;5.78;;;103.30;1638.40;;;;;;5055057;28;20040;-59
2022/01/07 01:52:28;;;;;;;11.05;5.45;;;103.30;1587.20;;;;;;5055159;28;20041;-60
2022/01/07 01:54:54;;;;;;;15.45;6.68;;;128.00;1612.80;;;;;;5055717;28;20033;-60
2022/01/07 01:57:20;;;;;;;18.70;7.88;;;128.00;1612.80;;;;;;5055914;28;20538;-60
2022/01/07 01:59:46;;;;;;;22.70;9.57;;;128.00;1612.80;;;;;;5055761;28;20033;-60
2022/01/07 02:02:12;;;;;;;25.92;9.98;;;128.10;1612.80;;;;;;5055943;28;20025;-60
2022/01/07 02:04:40;;;;;;;17.83;8.20;;;128.00;1612.80;;;;;;5055325;28;20159;-61
2022/01/07 02:07:11;;;;;;;16.13;6.63;;;103.20;1587.20;;;;;;5054670;28;20051;-60
2022/01/07 02:09:37;;;;;;;9.70;5.00;;;103.20;1612.80;;;;;;5056232;28;20137;-60
2022/01/07 02:12:08;;;;;;;9.70;4.80;;;103.30;1587.20;;;;;;5054680;28;20021;-60
2022/01/07 02:14:34;;;;;;;9.23;4.32;;;103.30;1612.80;;;;;;5055072;28;20032;-62
2022/01/07 02:17:19;;;;;;;10.35;4.32;;;103.30;1587.20;;;;;;5055574;28;20526;-62
2022/01/07 02:19:45;;;;;;;7.32;4.47;;;103.30;1638.40;;;;;;5053001;28;20395;-59
2022/01/07 02:22:12;;;;;;;8.45;4.25;;;103.30;1587.20;;;;;;5052704;28;20017;-60
2022/01/07 02:24:39;;;;;;;7.68;3.90;;;128.00;1638.40;;;;;;5055379;28;20418;-60
2022/01/07 02:27:07;;;;;;;7.10;3.35;;;128.00;1638.40;;;;;;5054130;28;20028;-59
2022/01/07 02:29:32;;;;;;;8.77;4.32;;;103.20;1587.20;;;;;;5052364;28;20041;-59
2022/01/07 02:31:58;;;;;;;7.22;4.45;;;103.20;1612.80;;;;;;5055240;28;20029;-60
2022/01/07 02:34:24;;;;;;;10.98;5.82;;;103.20;1587.20;;;;;;5055315;28;20383;-60
2022/01/07 02:36:50;;;;;;;11.48;5.47;;;103.10;1638.40;;;;;;5053270;28;20075;-60
2022/01/07 02:39:16;;;;;;;17.40;8.80;;;103.10;1612.80;;;;;;5055205;28;20025;-58
2022/01/07 02:41:41;;;;;;;18.10;8.93;;;103.10;1612.80;;;;;;5054493;28;20045;-60
2022/01/07 02:44:07;;;;;;;18.70;9.18;;;103.10;1638.40;;;;;;5053567;28;20083;-59
2022/01/07 02:46:33;;;;;;;10.43;6.05;;;103.10;1612.80;;;;;;5055501;28;20028;-61
2022/01/07 02:49:06;;;;;;;8.98;5.53;;;103.00;1612.80;;;;;;5055401;28;20047;-61
2022/01/07 02:51:32;;;;;;;8.93;5.15;;;103.00;1612.80;;;;;;5055414;28;20033;-59
2022/01/07 02:53:57;;;;;;;8.55;4.47;;;102.90;1638.40;;;;;;5055577;28;20124;-60
2022/01/07 02:56:23;;;;;;;13.57;4.97;;;102.90;1638.40;;;;;;5055297;28;20028;-60
2022/01/07 02:58:49;;;;;;;11.40;5.55;;;102.90;1612.80;;;;;;5055157;28;20540;-60
2022/01/07 03:01:14;;;;;;;10.30;4.55;;;102.90;1638.40;;;;;;5055301;28;20021;-60
2022/01/07 03:03:40;;;;;;;10.00;4.75;;;102.90;1612.80;;;;;;5055081;28;20074;-60
2022/01/07 03:06:06;;;;;;;8.52;4.50;;;102.90;1638.40;;;;;;5053961;28;20040;-60
2022/01/07 03:08:32;;;;;;;14.00;5.60;;;102.90;1638.40;;;;;;5054929;28;20028;-60
2022/01/07 03:10:57;;;;;;;9.55;4.90;;;102.70;1612.80;;;;;;5054573;28;20025;-60
2022/01/07 03:13:23;;;;;;;10.95;5.30;;;102.70;1664.00;;;;;;5054974;28;20103;-60
2022/01/07 03:15:49;;;;;;;9.27;4.50;;;102.80;1612.80;;;;;;5055713;28;20025;-60
2022/01/07 03:18:15;;;;;;;11.70;4.55;;;102.70;1638.40;;;;;;5055046;28;20536;-59
2022/01/07 03:20:41;;;;;;;8.43;4.38;;;102.70;1638.40;;;;;;5053722;28;20060;-60
2022/01/07 03:23:11;;;;;;;11.73;4.97;;;102.60;1612.80;;;;;;5054631;28;20028;-60
2022/01/07 03:25:37;;;;;;;8.50;4.30;;;102.60;1664.00;;;;;;5054894;28;20064;-60
2022/01/07 03:28:04;;;;;;;10.20;5.00;;;102.70;1612.80;;;;;;5054425;28;20109;-59
2022/01/07 03:30:30;;;;;;;11.95;5.43;;;102.60;1638.40;;;;;;5054423;28;20103;-60
2022/01/07 03:32:56;;;;;;;13.40;5.90;;;102.70;1612.80;;;;;;5054516;28;20025;-60
2022/01/07 03:35:22;;;;;;;10.82;6.20;;;102.60;1638.40;;;;;;5054776;28;20418;-60
2022/01/07 03:37:49;;;;;;;12.18;7.30;;;102.60;1664.00;;;;;;5054579;28;20459;-60
2022/01/07 03:40:16;;;;;;;9.10;5.63;;;102.60;1638.40;;;;;;5054411;28;20108;-60
2022/01/07 03:42:44;;;;;;;9.55;5.22;;;102.50;1638.40;;;;;;5053275;28;20067;-61
2022/01/07 03:45:10;;;;;;;12.52;5.30;;;102.50;1638.40;;;;;;5054144;28;20029;-60
2022/01/07 03:47:36;;;;;;;10.55;5.28;;;102.50;1638.40;;;;;;5054513;28;20040;-60
2022/01/07 03:50:06;;;;;;;11.15;4.45;;;102.50;1664.00;;;;;;5054407;28;20054;-60
2022/01/07 03:52:32;;;;;;;8.43;3.97;;;102.60;1638.40;;;;;;5052757;28;20149;-60
2022/01/07 03:54:58;;;;;;;12.20;5.13;;;102.60;1638.40;;;;;;5054302;28;20442;-60
2022/01/07 03:57:23;;;;;;;10.80;4.65;;;102.60;1612.80;;;;;;5054029;28;20036;-60
2022/01/07 03:59:50;;;;;;;7.60;4.70;;;102.50;1638.40;;;;;;5054196;28;20043;-60
2022/01/07 04:02:17;;;;;;;9.15;4.38;;;102.60;1638.40;;;;;;5053898;28;20100;-60
2022/01/07 04:04:43;;;;;;;8.93;4.60;;;102.60;1612.80;;;;;;5053728;28;20029;-60
2022/01/07 04:07:09;;;;;;;13.02;5.07;;;102.60;1638.40;;;;;;5054241;28;20037;-60
2022/01/07 04:09:35;;;;;;;13.68;6.68;;;102.60;1612.80;;;;;;5054080;28;20041;-60
2022/01/07 04:12:01;;;;;;;15.90;7.30;;;102.40;1612.80;;;;;;5054010;28;20040;-60
2022/01/07 04:14:27;;;;;;;18.00;9.40;;;102.50;1638.40;;;;;;5053722;28;20029;-60
2022/01/07 04:16:54;;;;;;;18.00;9.85;;;102.50;1612.80;;;;;;5053780;28;20071;-60
2022/01/07 04:19:21;;;;;;;18.17;12.80;;;102.40;1638.40;;;;;;5053729;28;20065;-60
2022/01/07 04:21:49;;;;;;;15.43;8.55;;;102.50;1612.80;;;;;;5053650;28;20025;-60
2022/01/07 04:24:14;;;;;;;16.42;8.50;;;102.50;1612.80;;;;;;5053396;28;20032;-60
2022/01/07 04:26:40;;;;;;;14.48;7.38;;;102.40;1638.40;;;;;;5053527;28;20126;-60
2022/01/07 04:29:06;;;;;;;13.35;7.07;;;77.70;1638.40;;;;;;5051728;28;20041;-60
2022/01/07 04:31:32;;;;;;;12.30;6.68;;;77.70;1664.00;;;;;;5053576;28;20461;-60
2022/01/07 04:33:57;;;;;;;17.35;6.60;;;102.40;1638.40;;;;;;5053510;28;20035;-60
2022/01/07 04:36:23;;;;;;;12.18;6.40;;;77.60;1638.40;;;;;;5052531;28;20035;-60
2022/01/07 04:38:49;;;;;;;13.68;6.75;;;77.70;1638.40;;;;;;5053612;28;20025;-60
2022/01/07 04:41:15;;;;;;;14.43;5.90;;;77.70;1638.40;;;;;;5053905;28;20033;-60
2022/01/07 04:43:40;;;;;;;9.60;5.10;;;77.70;1664.00;;;;;;5053429;28;20454;-60
2022/01/07 04:46:06;;;;;;;14.15;5.32;;;77.70;1612.80;;;;;;5053671;28;20096;-60
2022/01/07 04:48:32;;;;;;;11.73;5.45;;;77.70;1664.00;;;;;;5053603;28;20484;-60
2022/01/07 04:50:57;;;;;;;9.93;4.50;;;102.40;1638.40;;;;;;5051775;28;20017;-60
2022/01/07 04:53:24;;;;;;;11.20;5.32;;;77.70;1638.40;;;;;;5053370;28;20021;-60
2022/01/07 04:55:49;;;;;;;9.18;4.80;;;77.70;1664.00;;;;;;5053449;28;20028;-60
2022/01/07 04:58:15;;;;;;;9.90;4.90;;;77.70;1638.40;;;;;;5053312;28;20025;-60
2022/01/07 05:00:43;;;;;;;15.18;5.97;;;77.60;1664.00;;;;;;5053249;28;20025;-60
2022/01/07 05:03:10;;;;;;;15.07;6.43;;;77.70;1612.80;;;;;;5053304;28;20029;-60
2022/01/07 05:05:36;;;;;;;17.92;7.18;;;77.60;1638.40;;;;;;5052492;28;20057;-60
2022/01/07 05:08:03;;;;;;;19.10;8.82;;;77.70;1664.00;;;;;;5052521;28;20021;-60
2022/01/07 05:10:29;;;;;;;22.45;10.20;;;77.60;1638.40;;;;;;5053090;28;20501;-60
2022/01/07 05:12:55;;;;;;;21.35;9.68;;;77.60;1689.60;;;;;;5053599;28;20029;-60
2022/01/07 05:15:22;;;;;;;25.42;9.88;;;77.60;1612.80;;;;;;5052961;28;20044;-60
2022/01/07 05:17:49;;;;;;;22.13;10.30;;;77.50;1664.00;;;;;;5053210;28;20117;-59
2022/01/07 05:20:16;;;;;;;20.38;9.93;;;77.50;1664.00;;;;;;5052834;28;20021;-59
2022/01/07 05:22:43;;;;;;;20.42;9.45;;;77.50;1638.40;;;;;;5053084;28;20536;-60
2022/01/07 05:25:10;;;;;;;19.73;9.35;;;77.40;1689.60;;;;;;5053102;28;20033;-60
2022/01/07 05:27:36;;;;;;;20.42;9.10;;;77.50;1638.40;;;;;;5053251;28;20115;-60
2022/01/07 05:30:04;;;;;;;21.90;8.57;;;77.40;1664.00;;;;;;5052398;28;20439;-60
2022/01/07 05:32:30;;;;;;;16.25;8.07;;;77.50;1664.00;;;;;;5051584;28;20386;-60
2022/01/07 05:34:56;;;;;;;24.80;10.07;;;77.30;1689.60;;;;;;5054001;28;20033;-61
2022/01/07 05:37:22;;;;;;;18.88;8.95;;;77.40;1689.60;;;;;;5055795;28;20033;-59
2022/01/07 05:39:48;;;;;;;20.65;9.60;;;77.30;1638.40;;;;;;5056599;28;20037;-60
2022/01/07 05:42:14;;;;;;;22.88;10.32;;;77.30;1689.60;;;;;;5056772;28;20052;-60
2022/01/07 05:44:40;;;;;;;20.33;9.95;;;77.30;1664.00;;;;;;5056381;28;20419;-60
2022/01/07 05:47:06;;;;;;;18.60;10.00;;;77.30;1689.60;;;;;;5056619;28;20021;-60
2022/01/07 05:49:31;;;;;;;19.92;9.70;;;77.30;1715.20;;;;;;5056662;28;20040;-60
2022/01/07 05:51:57;;;;;;;25.50;11.68;;;77.20;1664.00;;;;;;5056522;28;20025;-60
2022/01/07 05:54:23;;;;;;;21.10;11.00;;;77.20;1689.60;;;;;;5056366;28;20593;-60
2022/01/07 05:56:49;;;;;;;23.40;11.75;;;77.30;1664.00;;;;;;5055207;28;20055;-60
2022/01/07 05:59:14;;;;;;;20.33;8.68;;;77.30;1664.00;;;;;;5056158;28;20040;-60
2022/01/07 06:01:41;;;;;;;12.95;7.22;;;77.40;1689.60;;;;;;5056068;28;20047;-60
2022/01/07 06:04:06;;;;;;;14.88;6.50;;;77.30;1664.00;;;;;;5056241;28;20075;-60
2022/01/07 06:06:32;;;;;;;11.65;6.40;;;77.30;1689.60;;;;;;5055969;28;20049;-60
2022/01/07 06:08:58;;;;;;;9.18;5.10;;;77.30;1638.40;;;;;;5055908;28;20140;-60
2022/01/07 06:11:23;;;;;;;14.00;6.60;;;77.20;1664.00;;;;;;5056153;28;20025;-60
2022/01/07 06:13:49;;;;;;;12.43;6.13;;;77.30;1689.60;;;;;;5056231;28;20409;-60
2022/01/07 06:16:15;;;;;;;14.23;6.20;;;77.20;1664.00;;;;;;5055901;28;20033;-60
2022/01/07 06:19:01;;;;;;;16.67;7.18;;;77.20;1715.20;;;;;;5055907;28;20029;-60
2022/01/07 06:21:27;;;;;;;15.57;6.78;;;77.20;1664.00;;;;;;5055528;28;20040;-60
2022/01/07 06:23:53;;;;;;;14.40;7.30;;;77.10;1689.60;;;;;;5055999;28;20371;-59
2022/01/07 06:26:19;;;;;;;19.73;8.10;;;77.10;1664.00;;;;;;5055646;28;20033;-60
2022/01/07 06:28:45;;;;;;;17.50;8.77;;;77.10;1664.00;;;;;;5055675;28;20029;-60
2022/01/07 07:00:24;;;;;;;47.25;13.52;;;51.90;1817.60;;;;;;5070687;28;20415;-61
2022/01/07 07:02:50;;;;;;;30.48;12.10;;;51.90;1740.80;;;;;;5070578;28;20025;-59
2022/01/07 07:05:17;;;;;;;29.63;11.23;;;51.90;1740.80;;;;;;5070823;28;20028;-58
2022/01/07 07:07:43;;;;;;;34.30;11.93;;;51.80;1740.80;;;;;;5070141;28;20478;-58
2022/01/07 07:10:08;;;;;;;37.95;14.50;;;51.90;1740.80;;;;;;5070988;28;20108;-61
2022/01/07 07:12:34;;;;;;;36.67;16.17;;;51.90;1740.80;;;;;;5070970;28;20102;-68
2022/01/07 07:15:00;;;;;;;39.80;15.10;;;52.00;1766.40;;;;;;5070709;28;20414;-67
2022/01/07 07:17:26;;;;;;;27.00;13.50;;;76.80;1740.80;;;;;;5069138;28;20437;-68
2022/01/07 07:19:51;;;;;;;24.83;13.52;;;76.80;1740.80;;;;;;5070659;28;20131;-69
2022/01/07 07:22:17;;;;;;;24.65;13.43;;;76.90;1740.80;;;;;;5070956;28;20029;-67
2022/01/07 07:24:43;;;;;;;25.98;13.18;;;77.00;1740.80;;;;;;5071067;28;20400;-67
2022/01/07 07:27:08;;;;;;;25.98;12.95;;;77.00;1740.80;;;;;;5069970;28;20017;-68
2022/01/07 07:29:34;;;;;;;26.33;14.98;;;77.10;1689.60;;;;;;5069671;28;20024;-67
2022/01/07 07:32:05;;;;;;;31.42;15.95;;;77.00;1664.00;;;;;;5070045;28;20013;-67
2022/01/07 07:37:05;;;;;;;23.02;13.73;;;77.10;1689.60;;;;;;5068222;28;20147;-76
2022/01/07 07:39:32;;;;;;;33.50;16.25;;;77.00;1689.60;;;;;;5069161;28;20040;-69
2022/01/07 07:41:58;;;;;;;31.45;15.82;;;77.00;1715.20;;;;;;5069351;28;20532;-61
2022/01/07 07:44:24;;;;;;;31.63;17.35;;;77.00;1689.60;;;;;;5068478;28;20036;-60
2022/01/07 07:46:51;;;;;;;34.25;16.58;;;76.90;1715.20;;;;;;5068660;28;20078;-60
2022/01/07 07:49:18;;;;;;;38.72;20.27;;;77.00;1740.80;;;;;;5068381;28;20149;-61
2022/01/07 07:51:46;;;;;;;50.60;24.00;;;77.00;1689.60;;;;;;5067723;28;20032;-62
2022/01/07 07:54:13;;;;;;;68.70;32.92;;;77.00;1715.20;;;;;;5069417;28;20111;-62
2022/01/07 07:56:39;;;;;;;83.60;38.38;;;77.00;1689.60;;;;;;5066855;28;20104;-62
2022/01/07 07:59:05;;;;;;;116.85;55.35;;;77.00;1715.20;;;;;;5067489;28;20127;-62
2022/01/07 08:01:31;;;;;;;149.57;86.90;;;77.00;1766.40;;;;;;5069563;28;20049;-61
2022/01/07 08:03:56;;;;;;;114.40;61.67;;;77.00;1715.20;;;;;;5069213;28;20049;-60
2022/01/07 08:06:22;;;;;;;159.00;85.72;;;77.00;1740.80;;;;;;5067743;28;20430;-60
2022/01/07 08:08:48;;;;;;;112.32;59.65;;;77.10;1715.20;;;;;;5069160;28;20033;-60
2022/01/07 08:11:15;;;;;;;118.57;58.85;;;77.00;1740.80;;;;;;5058502;28;20045;-61
2022/01/07 08:16:26;;;;;;;87.03;43.83;;;77.10;1715.20;;;;;;5054186;28;20021;-61
2022/01/07 08:18:54;;;;;;;90.18;42.20;;;77.10;1766.40;;;;;;5055221;28;20442;-61
2022/01/07 08:21:21;;;;;;;112.50;50.70;;;77.20;1715.20;;;;;;5053454;28;20017;-60
2022/01/07 08:23:46;;;;;;;120.55;56.30;;;77.20;1740.80;;;;;;5055816;28;20121;-60
2022/01/07 08:26:14;;;;;;;127.45;57.08;;;77.20;1740.80;;;;;;5054988;28;20447;-61
2022/01/07 08:28:46;;;;;;;96.35;47.58;;;77.30;1740.80;;;;;;5054875;28;20025;-60
2022/01/07 08:36:27;;;;;;;56.90;27.75;;;77.40;1740.80;;;;;;5055543;28;20090;-63
2022/01/07 08:38:53;;;;;;;51.22;25.05;;;77.50;1740.80;;;;;;5055374;28;20099;-63
2022/01/07 08:41:21;;;;;;;46.35;20.42;;;77.50;1766.40;;;;;;5053923;28;20033;-59
2022/01/07 08:43:47;;;;;;;37.72;18.67;;;77.60;1766.40;;;;;;5055614;28;20036;-60
2022/01/07 08:46:13;;;;;;;37.03;16.52;;;77.60;1740.80;;;;;;5055598;28;20033;-61
2022/01/07 08:48:39;;;;;;;36.38;15.80;;;102.40;1766.40;;;;;;5054358;28;20025;-62
2022/01/07 08:51:07;;;;;;;40.85;18.65;;;102.40;1715.20;;;;;;5054999;28;20463;-61
2022/01/07 08:53:33;;;;;;;38.63;17.67;;;102.50;1740.80;;;;;;5055267;28;20512;-60
2022/01/07 08:55:59;;;;;;;34.53;15.98;;;102.60;1740.80;;;;;;5054473;28;20032;-61
2022/01/07 08:58:26;;;;;;;34.50;15.25;;;102.60;1689.60;;;;;;5054474;28;20071;-60
2022/01/07 09:00:51;;;;;;;27.15;12.95;;;102.70;1689.60;;;;;;5054352;28;20037;-60
2022/01/07 09:03:17;;;;;;;32.90;14.45;;;102.70;1638.40;;;;;;5055382;28;20459;-60
2022/01/07 09:05:44;;;;;;;35.25;16.17;;;102.80;1689.60;;;;;;5055478;28;20052;-60
2022/01/07 09:08:11;;;;;;;32.10;15.88;;;102.90;1689.60;;;;;;5055302;28;20082;-60
2022/01/07 09:10:41;;;;;;;31.20;15.27;;;102.80;1689.60;;;;;;5054720;28;20033;-62
2022/01/07 09:13:07;;;;;;;29.70;14.10;;;102.90;1664.00;;;;;;5054560;28;20049;-60
2022/01/07 09:15:33;;;;;;;32.28;15.38;;;103.00;1664.00;;;;;;5054874;28;20032;-60
2022/01/07 09:18:00;;;;;;;40.05;15.98;;;103.10;1664.00;;;;;;5054688;28;20116;-60
2022/01/07 09:20:26;;;;;;;50.10;17.75;;;103.20;1792.00;;;;;;5054806;28;20076;-62
2022/01/07 09:22:53;;;;;;;44.58;18.92;;;103.30;1689.60;;;;;;5053654;28;20040;-61
2022/01/07 09:25:19;;;;;;;44.53;19.10;;;128.00;1689.60;;;;;;5054103;28;20037;-61
2022/01/07 09:27:45;;;;;;;33.30;16.10;;;128.00;1664.00;;;;;;5054110;28;20029;-62
2022/01/07 09:30:12;;;;;;;27.95;12.82;;;128.10;1689.60;;;;;;5054876;28;20021;-61
2022/01/07 09:32:38;;;;;;;19.35;11.35;;;128.20;1664.00;;;;;;5053314;28;20092;-61
2022/01/07 09:35:06;;;;;;;22.80;10.63;;;128.20;1638.40;;;;;;5053974;28;20029;-62
2022/01/07 09:37:31;;;;;;;20.90;9.10;;;128.30;1638.40;;;;;;5053887;28;20033;-61
2022/01/07 09:40:00;;;;;;;10.68;6.47;;;128.30;1664.00;;;;;;5054717;28;20125;-59
2022/01/07 09:42:26;;;;;;;16.05;8.20;;;128.50;1638.40;;;;;;5054054;28;20027;-58
2022/01/07 09:44:52;;;;;;;20.17;7.68;;;128.50;1638.40;;;;;;5054131;28;20021;-58
2022/01/07 09:47:18;;;;;;;9.95;5.65;;;128.50;1587.20;;;;;;5054549;28;20031;-59
2022/01/07 09:49:44;;;;;;;10.77;5.65;;;128.70;1612.80;;;;;;5052700;28;20490;-59
2022/01/07 09:52:10;;;;;;;10.05;4.78;;;128.60;1587.20;;;;;;5053877;28;20507;-62
2022/01/07 09:54:37;;;;;;;20.42;7.00;;;128.70;1561.60;;;;;;5053579;28;20021;-59
2022/01/07 09:57:06;;;;;;;22.02;6.80;;;128.80;1561.60;;;;;;5052210;28;20115;-59
2022/01/07 09:59:35;;;;;;;13.90;6.25;;;128.90;1612.80;;;;;;5053288;28;20045;-58
2022/01/07 10:02:02;;;;;;;13.65;7.45;;;128.90;1587.20;;;;;;5053193;28;20032;-58
2022/01/07 10:04:33;;;;;;;22.98;9.27;;;153.70;1587.20;;;;;;5054080;28;20041;-59
2022/01/07 10:07:11;;;;;;;18.55;9.15;;;153.90;1715.20;;;;;;5052933;28;20021;-58
2022/01/07 10:09:42;;;;;;;19.67;8.80;;;154.00;1638.40;;;;;;5053838;28;20021;-58
2022/01/07 10:12:08;;;;;;;16.38;7.72;;;154.00;1561.60;;;;;;5054229;28;20104;-58
2022/01/07 10:14:36;;;;;;;14.98;6.30;;;154.00;1561.60;;;;;;5052376;28;20082;-59
2022/01/07 10:17:06;;;;;;;14.18;7.35;;;154.00;1587.20;;;;;;5053666;28;20432;-59
2022/01/07 10:19:35;;;;;;;13.70;6.25;;;154.10;1561.60;;;;;;5052444;28;20037;-58
2022/01/07 10:22:12;;;;;;;12.00;5.20;;;154.10;1561.60;;;;;;5052563;28;20021;-59
2022/01/07 10:24:56;;;;;;;11.38;6.13;;;154.20;1561.60;;;;;;5050100;28;20116;-58
2022/01/07 10:27:24;;;;;;;13.50;8.03;;;154.20;1561.60;;;;;;5050749;28;20013;-59
2022/01/07 10:29:51;;;;;;;18.52;8.43;;;154.30;1536.00;;;;;;5050307;28;20037;-59
2022/01/07 10:32:29;;;;;;;13.65;7.57;;;154.40;1536.00;;;;;;5052316;28;20124;-59
2022/01/07 10:35:07;;;;;;;14.13;6.70;;;154.40;1510.40;;;;;;5053255;28;20104;-62
2022/01/07 10:37:46;;;;;;;16.35;8.60;;;154.50;1536.00;;;;;;5053702;28;20048;-59
2022/01/07 10:40:21;;;;;;;18.90;7.82;;;179.20;1510.40;;;;;;5053545;28;20040;-59
2022/01/07 10:42:47;;;;;;;26.45;7.70;;;179.20;1536.00;;;;;;5053810;28;20410;-59
2022/01/07 10:45:12;;;;;;;25.30;9.07;;;179.30;1612.80;;;;;;5053438;28;20051;-58
2022/01/07 10:47:38;;;;;;;43.95;10.15;;;179.40;1561.60;;;;;;5053544;28;20357;-59
2022/01/07 10:50:16;;;;;;;29.77;10.00;;;179.60;1612.80;;;;;;5053717;28;20025;-59
2022/01/07 10:52:42;;;;;;;14.30;6.88;;;179.60;1459.20;;;;;;5053775;28;20379;-59
2022/01/07 10:55:10;;;;;;;15.98;6.00;;;179.50;1382.40;;;;;;5053744;28;20070;-59
2022/01/07 10:57:44;;;;;;;12.27;6.82;;;179.40;1408.00;;;;;;5053298;28;20033;-59
2022/01/07 11:00:15;;;;;;;31.33;12.57;;;179.40;1408.00;;;;;;5053322;28;20061;-59
2022/01/07 11:02:41;;;;;;;37.42;14.27;;;179.40;1408.00;;;;;;5053855;28;20032;-59
2022/01/07 11:05:08;;;;;;;18.95;9.20;;;179.30;1408.00;;;;;;5053420;28;20370;-59
2022/01/07 11:07:35;;;;;;;16.67;7.45;;;179.30;1408.00;;;;;;5053855;28;20024;-59
2022/01/07 11:10:06;;;;;;;13.07;5.80;;;179.20;1433.60;;;;;;5053227;28;20025;-59
2022/01/07 11:12:32;;;;;;;11.57;5.65;;;179.20;1408.00;;;;;;5052914;28;20374;-67
2022/01/07 11:15:00;;;;;;;50.63;13.32;;;154.50;1433.60;;;;;;5053478;28;20075;-59
2022/01/07 11:17:26;;;;;;;46.20;13.85;;;154.50;1408.00;;;;;;5053083;28;20070;-59
2022/01/07 11:19:54;;;;;;;32.08;9.70;;;154.50;1433.60;;;;;;5053238;28;20356;-59
2022/01/07 11:22:22;;;;;;;25.67;8.88;;;154.50;1459.20;;;;;;5052047;28;20025;-63
2022/01/07 11:25:06;;;;;;;21.95;7.15;;;179.20;1484.80;;;;;;5051963;28;20128;-62
2022/01/07 11:27:52;;;;;;;17.40;6.78;;;179.30;1510.40;;;;;;5053056;28;20044;-62
2022/01/07 11:30:19;;;;;;;15.27;6.68;;;179.30;1433.60;;;;;;5053033;28;20032;-62
2022/01/07 11:32:52;;;;;;;13.15;7.00;;;179.30;1459.20;;;;;;5053499;28;20037;-62
2022/01/07 11:35:18;;;;;;;17.73;7.55;;;179.30;1459.20;;;;;;5053164;28;20340;-62
2022/01/07 11:37:49;;;;;;;10.50;6.18;;;179.20;1459.20;;;;;;5053238;28;20025;-62
2022/01/07 11:40:32;;;;;;;8.90;6.32;;;179.20;1459.20;;;;;;5053353;28;20552;-62
2022/01/07 11:42:59;;;;;;;11.23;5.85;;;179.20;1459.20;;;;;;5053262;28;20027;-62
2022/01/07 11:45:30;;;;;;;51.55;29.35;;;179.20;1484.80;;;;;;5053134;28;20098;-62
2022/01/07 11:48:17;;;;;;;89.20;48.45;;;179.20;1459.20;;;;;;5056867;28;20475;-62
2022/01/07 11:50:59;;;;;;;38.45;19.98;;;179.20;1484.80;;;;;;5056747;28;20036;-62
2022/01/07 11:53:44;;;;;;;24.33;12.20;;;154.50;1433.60;;;;;;5056894;28;20131;-62
2022/01/07 11:56:24;;;;;;;18.73;9.00;;;154.40;1459.20;;;;;;5056592;28;20111;-62
2022/01/07 11:58:56;;;;;;;19.05;9.40;;;154.50;1459.20;;;;;;5056561;28;20087;-61
2022/01/07 12:01:22;;;;;;;18.00;9.00;;;154.50;1484.80;;;;;;5056303;28;20029;-62
2022/01/07 12:03:50;;;;;;;15.30;8.20;;;154.50;1459.20;;;;;;5056420;28;20025;-61
2022/01/07 12:06:25;;;;;;;14.13;7.55;;;154.50;1408.00;;;;;;5056667;28;20040;-61
2022/01/07 12:09:08;;;;;;;20.17;9.82;;;154.50;1459.20;;;;;;5056582;28;20033;-62
2022/01/07 12:11:57;;;;;;;17.08;8.80;;;154.50;1433.60;;;;;;5056424;28;20036;-62
2022/01/07 12:14:55;;;;;;;19.90;9.45;;;154.40;1459.20;;;;;;5056315;28;20029;-62
2022/01/07 12:17:22;;;;;;;17.15;9.18;;;154.50;1484.80;;;;;;5056264;28;20536;-62
2022/01/07 12:19:48;;;;;;;17.65;8.95;;;154.50;1484.80;;;;;;5056421;28;20063;-62
2022/01/07 12:22:16;;;;;;;17.35;8.77;;;154.50;1459.20;;;;;;5056307;28;20028;-61
2022/01/07 12:24:43;;;;;;;16.27;7.97;;;154.50;1433.60;;;;;;5054964;28;20029;-62
2022/01/07 12:27:16;;;;;;;21.27;7.68;;;154.50;1510.40;;;;;;5056229;28;20029;-68
2022/01/07 12:29:44;;;;;;;12.50;6.68;;;154.50;1459.20;;;;;;5056056;28;20467;-60
2022/01/07 12:32:11;;;;;;;14.30;7.70;;;154.50;1484.80;;;;;;5054687;28;20033;-61
2022/01/07 12:34:43;;;;;;;11.00;5.75;;;179.20;1459.20;;;;;;5055974;28;20053;-60
2022/01/07 12:37:20;;;;;;;9.73;6.13;;;154.50;1433.60;;;;;;5055408;28;20115;-62
2022/01/07 12:39:53;;;;;;;12.10;6.63;;;179.20;1459.20;;;;;;5055143;28;20033;-64
2022/01/07 12:42:19;;;;;;;6.47;4.47;;;179.20;1433.60;;;;;;5054982;28;20028;-65
2022/01/07 12:44:52;;;;;;;13.50;5.68;;;154.50;1459.20;;;;;;5053639;28;20081;-60
2022/01/07 12:47:20;;;;;;;15.30;7.40;;;179.20;1433.60;;;;;;5052937;28;20532;-61
2022/01/07 12:49:49;;;;;;;11.52;6.28;;;179.30;1433.60;;;;;;5051894;28;20540;-62
2022/01/07 12:52:31;;;;;;;44.17;8.05;;;179.20;1433.60;;;;;;5035200;28;20159;-64